sensor_id;sensor_type;location;lat;lon;timestamp;pressure;altitude;pressure_sealevel;temperature;humidity
21433;BME280;18592;49.708;10.900;2024-03-23T00:55:17;97847.00;;;15.73;43.53
21433;BME280;18592;49.708;10.900;2024-03-23T00:57:17;97839.88;;;15.72;43.25
21433;BME280;18592;49.708;10.900;2024-03-23T00:59:17;97837.72;;;15.69;43.66
21433;BME280;18592;49.708;10.900;2024-03-23T01:01:18;97836.38;;;15.67;43.91
21433;BME280;18592;49.708;10.900;2024-03-23T01:03:18;97830.06;;;15.66;43.67
21433;BME280;18592;49.708;10.900;2024-03-23T01:05:19;97823.78;;;15.66;43.77
21433;BME280;18592;49.708;10.900;2024-03-23T01:07:19;97816.66;;;15.65;43.87
21433;BME280;18592;49.708;10.900;2024-03-23T01:09:20;97815.81;;;15.64;43.80
21433;BME280;18592;49.708;10.900;2024-03-23T01:11:20;97815.81;;;15.64;43.82
21433;BME280;18592;49.708;10.900;2024-03-23T01:13:21;97812.56;;;15.62;44.04
21433;BME280;18592;49.708;10.900;2024-03-23T01:15:22;97817.75;;;15.64;43.92
21433;BME280;18592;49.708;10.900;2024-03-23T01:17:23;97801.91;;;15.61;43.95
21433;BME280;18592;49.708;10.900;2024-03-23T01:19:23;97808.50;;;15.60;43.97
21433;BME280;18592;49.708;10.900;2024-03-23T01:21:37;97801.59;;;15.62;44.03
21433;BME280;18592;49.708;10.900;2024-03-23T01:23:38;97797.19;;;15.61;43.99
21433;BME280;18592;49.708;10.900;2024-03-23T01:25:38;97801.66;;;15.57;44.21
21433;BME280;18592;49.708;10.900;2024-03-23T01:27:38;97789.59;;;15.58;44.30
21433;BME280;18592;49.708;10.900;2024-03-23T01:29:39;97784.59;;;15.60;44.39
21433;BME280;18592;49.708;10.900;2024-03-23T01:31:39;97785.69;;;15.59;44.01
21433;BME280;18592;49.708;10.900;2024-03-23T01:33:39;97778.88;;;15.57;44.35
21433;BME280;18592;49.708;10.900;2024-03-23T01:35:40;97775.31;;;15.56;44.31
21433;BME280;18592;49.708;10.900;2024-03-23T01:37:41;97775.31;;;15.56;44.31
21433;BME280;18592;49.708;10.900;2024-03-23T01:39:41;97769.81;;;15.56;44.69
21433;BME280;18592;49.708;10.900;2024-03-23T01:41:42;97772.19;;;15.63;44.08
21433;BME280;18592;49.708;10.900;2024-03-23T01:43:44;97773.59;;;15.60;44.41
21433;BME280;18592;49.708;10.900;2024-03-23T01:45:44;97772.19;;;15.63;44.70
21433;BME280;18592;49.708;10.900;2024-03-23T01:47:45;97762.53;;;15.65;44.27
21433;BME280;18592;49.708;10.900;2024-03-23T01:49:45;97757.31;;;15.64;44.54
21433;BME280;18592;49.708;10.900;2024-03-23T01:51:45;97757.31;;;15.64;44.30
21433;BME280;18592;49.708;10.900;2024-03-23T01:53:46;97752.44;;;15.61;44.53
21433;BME280;18592;49.708;10.900;2024-03-23T01:55:48;97754.97;;;15.57;44.96
21433;BME280;18592;49.708;10.900;2024-03-23T01:57:48;97760.25;;;15.54;44.63
21433;BME280;18592;49.708;10.900;2024-03-23T01:59:48;97750.69;;;15.51;44.55
21433;BME280;18592;49.708;10.900;2024-03-23T02:01:57;97742.53;;;15.46;44.73
21433;BME280;18592;49.708;10.900;2024-03-23T02:03:58;97732.69;;;15.45;44.69
21433;BME280;18592;49.708;10.900;2024-03-23T02:06:00;97733.75;;;15.44;45.13
21433;BME280;18592;49.708;10.900;2024-03-23T02:08:01;97727.97;;;15.46;44.59
21433;BME280;18592;49.708;10.900;2024-03-23T02:10:02;97728.25;;;15.44;44.49
21433;BME280;18592;49.708;10.900;2024-03-23T02:12:03;97727.75;;;15.42;44.84
21433;BME280;18592;49.708;10.900;2024-03-23T02:14:03;97714.84;;;15.43;45.00
21433;BME280;18592;49.708;10.900;2024-03-23T02:16:05;97719.19;;;15.44;44.96
21433;BME280;18592;49.708;10.900;2024-03-23T02:18:07;97713.72;;;15.44;44.82
21433;BME280;18592;49.708;10.900;2024-03-23T02:20:11;97706.88;;;15.41;45.17
21433;BME280;18592;49.708;10.900;2024-03-23T02:22:12;97704.75;;;15.38;45.48
21433;BME280;18592;49.708;10.900;2024-03-23T02:24:12;97700.88;;;15.39;45.05
21433;BME280;18592;49.708;10.900;2024-03-23T02:26:13;97696.22;;;15.40;45.31
21433;BME280;18592;49.708;10.900;2024-03-23T02:28:15;97692.06;;;15.42;45.60
21433;BME280;18592;49.708;10.900;2024-03-23T02:30:15;97692.88;;;15.43;45.00
21433;BME280;18592;49.708;10.900;2024-03-23T02:32:16;97690.13;;;15.43;45.24
21433;BME280;18592;49.708;10.900;2024-03-23T02:34:16;97688.16;;;15.43;45.02
21433;BME280;18592;49.708;10.900;2024-03-23T02:36:16;97677.50;;;15.42;45.48
21433;BME280;18592;49.708;10.900;2024-03-23T02:38:17;97669.25;;;15.42;45.67
21433;BME280;18592;49.708;10.900;2024-03-23T02:40:17;97670.09;;;15.42;45.75
21433;BME280;18592;49.708;10.900;2024-03-23T02:42:18;97668.66;;;15.45;45.10
21433;BME280;18592;49.708;10.900;2024-03-23T02:44:18;97666.75;;;15.45;45.41
21433;BME280;18592;49.708;10.900;2024-03-23T02:46:19;97669.25;;;15.42;45.18
21433;BME280;18592;49.708;10.900;2024-03-23T02:48:19;97671.00;;;15.38;45.46
21433;BME280;18592;49.708;10.900;2024-03-23T02:50:20;97663.38;;;15.35;45.45
21433;BME280;18592;49.708;10.900;2024-03-23T02:52:21;97652.66;;;15.33;45.30
21433;BME280;18592;49.708;10.900;2024-03-23T02:54:22;97642.00;;;15.32;45.82
21433;BME280;18592;49.708;10.900;2024-03-23T02:56:22;97641.50;;;15.30;45.72
21433;BME280;18592;49.708;10.900;2024-03-23T02:58:23;97636.28;;;15.28;45.68
21433;BME280;18592;49.708;10.900;2024-03-23T03:00:23;97629.78;;;15.24;45.73
21433;BME280;18592;49.708;10.900;2024-03-23T03:02:23;97628.97;;;15.23;45.48
21433;BME280;18592;49.708;10.900;2024-03-23T03:04:26;97629.78;;;15.24;45.64
21433;BME280;18592;49.708;10.900;2024-03-23T03:06:39;97618.31;;;15.22;45.81
21433;BME280;18592;49.708;10.900;2024-03-23T03:08:49;97618.81;;;15.24;45.85
21433;BME280;18592;49.708;10.900;2024-03-23T03:10:50;97624.81;;;15.26;45.59
21433;BME280;18592;49.708;10.900;2024-03-23T03:12:51;97614.94;;;15.25;45.89
21433;BME280;18592;49.708;10.900;2024-03-23T03:14:51;97623.19;;;15.25;45.84
21433;BME280;18592;49.708;10.900;2024-03-23T03:16:52;97613.00;;;15.25;45.33
21433;BME280;18592;49.708;10.900;2024-03-23T03:18:52;97612.72;;;15.27;45.54
21433;BME280;18592;49.708;10.900;2024-03-23T03:20:54;97601.41;;;15.28;45.56
21433;BME280;18592;49.708;10.900;2024-03-23T03:23:12;97596.03;;;15.37;45.43
21433;BME280;18592;49.708;10.900;2024-03-23T03:25:12;97584.63;;;15.44;45.37
21433;BME280;18592;49.708;10.900;2024-03-23T03:27:13;97584.88;;;15.47;45.61
21433;BME280;18592;49.708;10.900;2024-03-23T03:29:13;97575.81;;;15.47;45.03
21433;BME280;18592;49.708;10.900;2024-03-23T03:31:15;97573.66;;;15.44;45.22
21433;BME280;18592;49.708;10.900;2024-03-23T03:33:21;97565.94;;;15.46;45.23
21433;BME280;18592;49.708;10.900;2024-03-23T03:35:26;97545.06;;;15.45;45.18
21433;BME280;18592;49.708;10.900;2024-03-23T03:37:27;97538.75;;;15.44;45.09
21433;BME280;18592;49.708;10.900;2024-03-23T03:39:28;97539.88;;;15.43;45.23
21433;BME280;18592;49.708;10.900;2024-03-23T03:41:28;97539.28;;;15.46;45.22
21433;BME280;18592;49.708;10.900;2024-03-23T03:43:28;97535.66;;;15.51;45.09
21433;BME280;18592;49.708;10.900;2024-03-23T03:45:29;97541.16;;;15.51;45.51
21433;BME280;18592;49.708;10.900;2024-03-23T03:47:34;97531.34;;;15.45;45.33
21433;BME280;18592;49.708;10.900;2024-03-23T03:50:05;97533.38;;;15.39;45.22
21433;BME280;18592;49.708;10.900;2024-03-23T03:52:06;97532.06;;;15.37;45.33
21433;BME280;18592;49.708;10.900;2024-03-23T03:54:06;97522.00;;;15.46;45.23
21433;BME280;18592;49.708;10.900;2024-03-23T03:56:08;97524.22;;;15.57;44.88
21433;BME280;18592;49.708;10.900;2024-03-23T03:58:08;97508.25;;;15.59;44.76
21433;BME280;18592;49.708;10.900;2024-03-23T04:00:12;97513.75;;;15.59;44.88
21433;BME280;18592;49.708;10.900;2024-03-23T04:02:12;97494.41;;;15.64;44.69
21433;BME280;18592;49.708;10.900;2024-03-23T04:04:13;97503.91;;;15.58;44.78
21433;BME280;18592;49.708;10.900;2024-03-23T04:06:20;97493.81;;;15.54;44.69
21433;BME280;18592;49.708;10.900;2024-03-23T04:08:21;97489.88;;;15.46;45.18
21433;BME280;18592;49.708;10.900;2024-03-23T04:10:25;97488.84;;;15.42;45.17
21433;BME280;18592;49.708;10.900;2024-03-23T04:12:41;97484.28;;;15.38;45.23
21433;BME280;18592;49.708;10.900;2024-03-23T04:14:41;97488.94;;;15.37;45.32
21433;BME280;18592;49.708;10.900;2024-03-23T04:16:43;97499.94;;;15.37;45.32
21433;BME280;18592;49.708;10.900;2024-03-23T04:18:43;97503.78;;;15.36;45.13
21433;BME280;18592;49.708;10.900;2024-03-23T04:20:44;97519.03;;;15.42;45.05
21433;BME280;18592;49.708;10.900;2024-03-23T04:22:44;97537.13;;;15.43;45.08
21433;BME280;18592;49.708;10.900;2024-03-23T04:24:45;97534.19;;;15.40;45.08
21433;BME280;18592;49.708;10.900;2024-03-23T04:26:45;97519.25;;;15.32;45.23
21433;BME280;18592;49.708;10.900;2024-03-23T04:28:46;97505.53;;;15.32;45.08
21433;BME280;18592;49.708;10.900;2024-03-23T04:30:50;97500.03;;;15.32;45.18
21433;BME280;18592;49.708;10.900;2024-03-23T04:32:50;97506.97;;;15.30;45.41
21433;BME280;18592;49.708;10.900;2024-03-23T04:34:51;97506.84;;;15.35;44.98
21433;BME280;18592;49.708;10.900;2024-03-23T04:36:51;97515.25;;;15.38;45.64
21433;BME280;18592;49.708;10.900;2024-03-23T04:38:51;97515.41;;;15.47;45.03
21433;BME280;18592;49.708;10.900;2024-03-23T04:40:57;97511.94;;;15.55;45.39
21433;BME280;18592;49.708;10.900;2024-03-23T04:42:57;97517.09;;;15.56;44.82
21433;BME280;18592;49.708;10.900;2024-03-23T04:44:59;97509.19;;;15.55;44.89
21433;BME280;18592;49.708;10.900;2024-03-23T04:47:02;97509.50;;;15.53;45.14
21433;BME280;18592;49.708;10.900;2024-03-23T04:49:02;97506.31;;;15.60;45.18
21433;BME280;18592;49.708;10.900;2024-03-23T04:51:04;97516.38;;;15.64;45.00
21433;BME280;18592;49.708;10.900;2024-03-23T05:03:48;97499.19;;;16.17;43.87
21433;BME280;18592;49.708;10.900;2024-03-23T05:05:50;97492.31;;;16.06;44.04
21433;BME280;18592;49.708;10.900;2024-03-23T05:08:06;97480.56;;;15.92;44.83
21433;BME280;18592;49.708;10.900;2024-03-23T05:10:08;97475.72;;;15.88;44.84
21433;BME280;18592;49.708;10.900;2024-03-23T05:12:10;97463.91;;;15.88;44.72
21433;BME280;18592;49.708;10.900;2024-03-23T05:14:13;97462.59;;;15.85;45.18
21433;BME280;18592;49.708;10.900;2024-03-23T05:16:14;97446.72;;;15.82;44.88
21433;BME280;18592;49.708;10.900;2024-03-23T05:18:14;97437.91;;;15.72;44.83
21433;BME280;18592;49.708;10.900;2024-03-23T05:20:14;97436.53;;;15.61;44.97
21433;BME280;18592;49.708;10.900;2024-03-23T05:22:16;97437.56;;;15.51;45.83
21433;BME280;18592;49.708;10.900;2024-03-23T05:24:31;97446.94;;;15.50;46.00
21433;BME280;18592;49.708;10.900;2024-03-23T05:26:32;97459.41;;;15.56;45.42
21433;BME280;18592;49.708;10.900;2024-03-23T05:28:34;97452.31;;;15.55;45.63
21433;BME280;18592;49.708;10.900;2024-03-23T05:30:34;97455.25;;;15.59;45.27
21433;BME280;18592;49.708;10.900;2024-03-23T05:32:34;97455.25;;;15.59;45.05
21433;BME280;18592;49.708;10.900;2024-03-23T05:34:43;97446.38;;;15.62;45.31
21433;BME280;18592;49.708;10.900;2024-03-23T05:36:44;97441.22;;;15.60;45.18
21433;BME280;18592;49.708;10.900;2024-03-23T05:38:44;97437.31;;;15.61;44.99
21433;BME280;18592;49.708;10.900;2024-03-23T05:40:55;97442.94;;;15.56;45.07
21433;BME280;18592;49.708;10.900;2024-03-23T05:42:56;97440.84;;;15.53;46.08
21433;BME280;18592;49.708;10.900;2024-03-23T05:44:56;97434.53;;;15.53;45.62
21433;BME280;18592;49.708;10.900;2024-03-23T05:46:57;97443.16;;;15.46;45.67
21433;BME280;18592;49.708;10.900;2024-03-23T05:49:01;97447.06;;;15.45;45.81
21433;BME280;18592;49.708;10.900;2024-03-23T05:51:12;97449.81;;;15.45;45.58
21433;BME280;18592;49.708;10.900;2024-03-23T05:53:15;97434.13;;;15.46;45.69
21433;BME280;18592;49.708;10.900;2024-03-23T05:55:30;97442.56;;;15.49;45.87
21433;BME280;18592;49.708;10.900;2024-03-23T06:08:19;97404.34;;;16.06;45.05
21433;BME280;18592;49.708;10.900;2024-03-23T06:10:19;97413.34;;;15.98;45.19
21433;BME280;18592;49.708;10.900;2024-03-23T06:12:20;97419.13;;;15.87;45.70
21433;BME280;18592;49.708;10.900;2024-03-23T06:14:21;97414.97;;;15.76;45.58
21433;BME280;18592;49.708;10.900;2024-03-23T06:16:22;97414.59;;;15.69;46.01
21433;BME280;18592;49.708;10.900;2024-03-23T06:18:24;97408.13;;;15.65;46.15
21433;BME280;18592;49.708;10.900;2024-03-23T06:20:24;97422.28;;;15.59;46.63
21433;BME280;18592;49.708;10.900;2024-03-23T06:22:26;97421.78;;;15.57;46.39
21433;BME280;18592;49.708;10.900;2024-03-23T06:24:27;97423.28;;;15.63;45.94
21433;BME280;18592;49.708;10.900;2024-03-23T06:26:27;97429.09;;;15.61;46.59
21433;BME280;18592;49.708;10.900;2024-03-23T06:28:27;97431.22;;;15.64;46.23
21433;BME280;18592;49.708;10.900;2024-03-23T06:30:28;97420.22;;;15.64;46.07
21433;BME280;18592;49.708;10.900;2024-03-23T06:32:29;97412.94;;;15.60;46.27
21433;BME280;18592;49.708;10.900;2024-03-23T06:34:30;97416.63;;;15.55;46.25
21433;BME280;18592;49.708;10.900;2024-03-23T06:36:30;97414.00;;;15.50;46.59
21433;BME280;18592;49.708;10.900;2024-03-23T06:38:31;97411.53;;;15.49;46.71
21433;BME280;18592;49.708;10.900;2024-03-23T06:40:41;97411.53;;;15.49;46.72
21433;BME280;18592;49.708;10.900;2024-03-23T06:42:42;97415.72;;;15.46;46.92
21433;BME280;18592;49.708;10.900;2024-03-23T06:44:43;97417.34;;;15.47;46.73
21433;BME280;18592;49.708;10.900;2024-03-23T06:46:44;97423.34;;;15.49;47.24
21433;BME280;18592;49.708;10.900;2024-03-23T06:48:45;97412.06;;;15.51;46.89
21433;BME280;18592;49.708;10.900;2024-03-23T06:50:57;97407.88;;;15.53;46.75
21433;BME280;18592;49.708;10.900;2024-03-23T06:53:07;97420.47;;;15.54;47.02
21433;BME280;18592;49.708;10.900;2024-03-23T06:55:08;97423.72;;;15.56;46.97
21433;BME280;18592;49.708;10.900;2024-03-23T06:57:08;97435.50;;;15.57;46.82
21433;BME280;18592;49.708;10.900;2024-03-23T06:59:09;97431.66;;;15.58;47.15
21433;BME280;18592;49.708;10.900;2024-03-23T07:01:09;97440.88;;;15.62;46.81
21433;BME280;18592;49.708;10.900;2024-03-23T07:03:09;97443.97;;;15.60;47.00
21433;BME280;18592;49.708;10.900;2024-03-23T07:05:17;97441.38;;;15.64;46.89
21433;BME280;18592;49.708;10.900;2024-03-23T07:07:17;97459.81;;;15.63;46.88
21433;BME280;18592;49.708;10.900;2024-03-23T07:09:18;97456.25;;;15.63;46.96
21433;BME280;18592;49.708;10.900;2024-03-23T07:11:23;97462.56;;;15.63;47.02
21433;BME280;18592;49.708;10.900;2024-03-23T07:13:24;97469.69;;;15.64;46.97
21433;BME280;18592;49.708;10.900;2024-03-23T07:15:24;97484.56;;;15.63;47.47
21433;BME280;18592;49.708;10.900;2024-03-23T07:28:04;97498.75;;;16.23;46.62
21433;BME280;18592;49.708;10.900;2024-03-23T07:30:06;97494.00;;;16.15;46.42
21433;BME280;18592;49.708;10.900;2024-03-23T07:32:08;97505.13;;;16.10;46.66
21433;BME280;18592;49.708;10.900;2024-03-23T07:34:08;97500.88;;;16.04;46.75
21433;BME280;18592;49.708;10.900;2024-03-23T07:36:08;97502.41;;;15.97;46.89
21433;BME280;18592;49.708;10.900;2024-03-23T07:38:09;97493.19;;;15.93;47.11
21433;BME280;18592;49.708;10.900;2024-03-23T07:40:10;97500.94;;;15.91;47.04
21433;BME280;18592;49.708;10.900;2024-03-23T07:42:10;97503.81;;;15.85;47.46
21433;BME280;18592;49.708;10.900;2024-03-23T07:44:11;97517.22;;;15.87;47.09
21433;BME280;18592;49.708;10.900;2024-03-23T07:46:12;97529.66;;;15.84;47.21
21433;BME280;18592;49.708;10.900;2024-03-23T07:48:12;97553.28;;;15.85;47.07
21433;BME280;18592;49.708;10.900;2024-03-23T07:50:12;97547.88;;;15.80;47.09
21433;BME280;18592;49.708;10.900;2024-03-23T07:52:13;97547.41;;;15.78;47.47
21433;BME280;18592;49.708;10.900;2024-03-23T07:54:13;97552.38;;;15.76;47.21
21433;BME280;18592;49.708;10.900;2024-03-23T07:56:15;97562.03;;;15.74;47.33
21433;BME280;18592;49.708;10.900;2024-03-23T07:58:15;97571.91;;;15.75;47.30
21433;BME280;18592;49.708;10.900;2024-03-23T08:00:16;97589.84;;;15.72;47.39
21433;BME280;18592;49.708;10.900;2024-03-23T08:02:25;97587.09;;;15.72;47.38
21433;BME280;18592;49.708;10.900;2024-03-23T08:04:28;97603.34;;;15.69;47.36
21433;BME280;18592;49.708;10.900;2024-03-23T08:06:29;97603.34;;;15.69;47.33
21433;BME280;18592;49.708;10.900;2024-03-23T08:08:29;97606.63;;;15.71;47.17
21433;BME280;18592;49.708;10.900;2024-03-23T08:10:29;97614.06;;;15.70;47.50
21433;BME280;18592;49.708;10.900;2024-03-23T08:12:30;97611.91;;;15.67;47.33
21433;BME280;18592;49.708;10.900;2024-03-23T08:14:30;97605.09;;;15.65;46.98
21433;BME280;18592;49.708;10.900;2024-03-23T08:16:31;97611.91;;;15.67;47.45
21433;BME280;18592;49.708;10.900;2024-03-23T08:18:32;97621.28;;;15.66;47.77
21433;BME280;18592;49.708;10.900;2024-03-23T08:20:37;97624.22;;;15.70;47.40
21433;BME280;18592;49.708;10.900;2024-03-23T08:22:37;97626.16;;;15.69;47.30
21433;BME280;18592;49.708;10.900;2024-03-23T08:24:38;97631.66;;;15.69;47.24
21433;BME280;18592;49.708;10.900;2024-03-23T08:26:50;97628.91;;;15.69;47.28
21433;BME280;18592;49.708;10.900;2024-03-23T08:28:51;97637.97;;;15.70;47.36
21433;BME280;18592;49.708;10.900;2024-03-23T08:30:52;97649.78;;;15.70;47.11
21433;BME280;18592;49.708;10.900;2024-03-23T08:32:53;97650.59;;;15.71;47.25
21433;BME280;18592;49.708;10.900;2024-03-23T08:34:54;97660.16;;;15.73;47.08
21433;BME280;18592;49.708;10.900;2024-03-23T08:37:05;97678.84;;;15.71;47.49
21433;BME280;18592;49.708;10.900;2024-03-23T08:39:18;97684.34;;;15.71;47.10
21433;BME280;18592;49.708;10.900;2024-03-23T08:41:21;97703.09;;;15.69;46.90
21433;BME280;18592;49.708;10.900;2024-03-23T08:43:36;97717.75;;;15.65;46.52
21433;BME280;18592;49.708;10.900;2024-03-23T08:45:37;97731.88;;;15.58;46.36
21433;BME280;18592;49.708;10.900;2024-03-23T08:47:42;97739.59;;;15.56;46.64
21433;BME280;18592;49.708;10.900;2024-03-23T08:49:59;97758.63;;;15.53;46.40
21433;BME280;18592;49.708;10.900;2024-03-23T08:52:00;97758.41;;;15.49;46.38
21433;BME280;18592;49.708;10.900;2024-03-23T08:54:18;97763.69;;;15.46;46.41
21433;BME280;18592;49.708;10.900;2024-03-23T08:56:20;97761.81;;;15.41;46.14
21433;BME280;18592;49.708;10.900;2024-03-23T08:58:23;97772.28;;;15.39;46.11
21433;BME280;18592;49.708;10.900;2024-03-23T09:00:26;97786.63;;;15.36;45.99
21433;BME280;18592;49.708;10.900;2024-03-23T09:02:35;97804.22;;;15.35;46.03
21433;BME280;18592;49.708;10.900;2024-03-23T09:04:36;97804.50;;;15.34;45.63
21433;BME280;18592;49.708;10.900;2024-03-23T09:06:39;97821.28;;;15.32;46.07
21433;BME280;18592;49.708;10.900;2024-03-23T09:08:42;97829.53;;;15.32;46.06
21433;BME280;18592;49.708;10.900;2024-03-23T09:10:43;97829.53;;;15.32;45.89
21433;BME280;18592;49.708;10.900;2024-03-23T09:12:44;97833.91;;;15.33;45.74
21433;BME280;18592;49.708;10.900;2024-03-23T09:14:45;97827.06;;;15.31;45.92
21433;BME280;18592;49.708;10.900;2024-03-23T09:17:11;97811.41;;;15.31;46.28
21433;BME280;18592;49.708;10.900;2024-03-23T09:19:17;97823.44;;;15.35;45.94
21433;BME280;18592;49.708;10.900;2024-03-23T09:21:18;97834.88;;;15.42;45.92
21433;BME280;18592;49.708;10.900;2024-03-23T09:23:21;97840.53;;;15.51;46.24
21433;BME280;18592;49.708;10.900;2024-03-23T09:25:22;97851.94;;;15.58;45.55
21433;BME280;18592;49.708;10.900;2024-03-23T09:27:27;97829.28;;;15.66;45.09
21433;BME280;18592;49.708;10.900;2024-03-23T09:29:31;97833.78;;;15.75;45.33
21433;BME280;18592;49.708;10.900;2024-03-23T09:31:39;97853.34;;;15.87;45.17
21433;BME280;18592;49.708;10.900;2024-03-23T09:33:44;97849.81;;;16.01;44.92
21433;BME280;18592;49.708;10.900;2024-03-23T09:35:45;97852.88;;;16.13;45.15
21433;BME280;18592;49.708;10.900;2024-03-23T09:37:51;97862.75;;;16.27;44.74
21433;BME280;18592;49.708;10.900;2024-03-23T09:39:54;97867.75;;;16.39;44.41
21433;BME280;18592;49.708;10.900;2024-03-23T09:42:00;97863.16;;;16.48;43.25
21433;BME280;18592;49.708;10.900;2024-03-23T09:44:04;97872.34;;;16.57;44.21
21433;BME280;18592;49.708;10.900;2024-03-23T09:46:24;97873.38;;;16.61;43.64
21433;BME280;18592;49.708;10.900;2024-03-23T09:48:25;97887.03;;;16.66;43.73
21433;BME280;18592;49.708;10.900;2024-03-23T09:50:26;97886.94;;;16.71;43.85
21433;BME280;18592;49.708;10.900;2024-03-23T09:52:46;97887.72;;;16.99;42.47
21433;BME280;18592;49.708;10.900;2024-03-23T09:54:47;97894.66;;;16.96;42.14
21433;BME280;18592;49.708;10.900;2024-03-23T09:56:48;97892.50;;;16.93;42.13
21433;BME280;18592;49.708;10.900;2024-03-23T09:58:49;97899.78;;;16.89;41.72
21433;BME280;18592;49.708;10.900;2024-03-23T10:01:01;97910.91;;;16.84;41.57
21433;BME280;18592;49.708;10.900;2024-03-23T10:03:10;97913.75;;;16.79;40.97
21433;BME280;18592;49.708;10.900;2024-03-23T10:05:22;97916.06;;;16.72;41.14
21433;BME280;18592;49.708;10.900;2024-03-23T10:07:23;97915.06;;;16.68;41.37
21433;BME280;18592;49.708;10.900;2024-03-23T10:09:33;97924.75;;;16.66;41.37
21433;BME280;18592;49.708;10.900;2024-03-23T10:11:45;97930.03;;;16.62;41.42
21433;BME280;18592;49.708;10.900;2024-03-23T10:13:49;97937.78;;;16.60;41.28
21433;BME280;18592;49.708;10.900;2024-03-23T10:15:58;97937.78;;;16.60;41.15
21433;BME280;18592;49.708;10.900;2024-03-23T10:18:19;97939.63;;;16.65;42.07
21433;BME280;18592;49.708;10.900;2024-03-23T10:20:23;97939.53;;;16.70;41.93
21433;BME280;18592;49.708;10.900;2024-03-23T10:22:24;97948.50;;;16.75;41.67
21433;BME280;18592;49.708;10.900;2024-03-23T10:24:32;97939.34;;;16.80;41.09
21433;BME280;18592;49.708;10.900;2024-03-23T10:26:35;97940.03;;;16.85;41.08
21433;BME280;18592;49.708;10.900;2024-03-23T10:28:53;97938.00;;;16.91;41.15
21433;BME280;18592;49.708;10.900;2024-03-23T10:30:54;97946.66;;;16.98;41.39
21433;BME280;18592;49.708;10.900;2024-03-23T10:33:08;97941.69;;;17.00;40.43
21433;BME280;18592;49.708;10.900;2024-03-23T10:37:15;97932.50;;;17.04;40.17
21433;BME280;18592;49.708;10.900;2024-03-23T10:39:25;97937.16;;;17.04;40.18
21433;BME280;18592;49.708;10.900;2024-03-23T10:41:39;97936.66;;;17.02;40.00
21433;BME280;18592;49.708;10.900;2024-03-23T10:43:55;97938.38;;;16.98;39.67
21433;BME280;18592;49.708;10.900;2024-03-23T10:46:06;97955.56;;;16.95;39.58
21433;BME280;18592;49.708;10.900;2024-03-23T10:48:07;97955.84;;;16.93;39.89
21433;BME280;18592;49.708;10.900;2024-03-23T10:50:11;97949.84;;;16.91;39.80
21433;BME280;18592;49.708;10.900;2024-03-23T10:52:12;97959.84;;;16.87;39.77
21433;BME280;18592;49.708;10.900;2024-03-23T10:54:24;97957.69;;;16.84;39.46
21433;BME280;18592;49.708;10.900;2024-03-23T10:56:26;97960.22;;;16.81;39.83
21433;BME280;18592;49.708;10.900;2024-03-23T10:58:40;97968.31;;;16.77;39.41
21433;BME280;18592;49.708;10.900;2024-03-23T11:00:41;97955.53;;;16.81;39.90
21433;BME280;18592;49.708;10.900;2024-03-23T11:02:50;97951.88;;;16.86;40.35
21433;BME280;18592;49.708;10.900;2024-03-23T11:04:51;97942.47;;;17.14;40.49
21433;BME280;18592;49.708;10.900;2024-03-23T11:06:51;97951.44;;;17.20;40.70
21433;BME280;18592;49.708;10.900;2024-03-23T11:09:00;97946.00;;;17.28;40.79
21433;BME280;18592;49.708;10.900;2024-03-23T11:11:20;97949.16;;;17.35;40.77
21433;BME280;18592;49.708;10.900;2024-03-23T11:13:23;97955.88;;;17.43;40.42
21433;BME280;18592;49.708;10.900;2024-03-23T11:15:24;97957.72;;;17.47;40.03
21433;BME280;18592;49.708;10.900;2024-03-23T11:17:32;97963.38;;;17.51;39.82
21433;BME280;18592;49.708;10.900;2024-03-23T11:19:58;97962.91;;;17.49;38.81
21433;BME280;18592;49.708;10.900;2024-03-23T11:22:07;97975.06;;;17.48;39.16
21433;BME280;18592;49.708;10.900;2024-03-23T11:24:14;97971.28;;;17.44;39.03
21433;BME280;18592;49.708;10.900;2024-03-23T11:26:15;97966.69;;;17.39;38.63
21433;BME280;18592;49.708;10.900;2024-03-23T11:28:27;97973.63;;;17.37;38.41
21433;BME280;18592;49.708;10.900;2024-03-23T11:30:28;97969.34;;;17.31;38.02
21433;BME280;18592;49.708;10.900;2024-03-23T11:32:30;97978.75;;;17.30;38.22
21433;BME280;18592;49.708;10.900;2024-03-23T11:34:33;97984.38;;;17.25;38.06
21433;BME280;18592;49.708;10.900;2024-03-23T11:36:45;97988.56;;;17.22;38.02
21433;BME280;18592;49.708;10.900;2024-03-23T11:38:49;97981.22;;;17.18;38.11
21433;BME280;18592;49.708;10.900;2024-03-23T11:41:02;97966.94;;;17.15;37.71
21433;BME280;18592;49.708;10.900;2024-03-23T11:43:04;97967.03;;;17.10;37.69
21433;BME280;18592;49.708;10.900;2024-03-23T11:45:09;97965.72;;;17.08;37.95
21433;BME280;18592;49.708;10.900;2024-03-23T11:47:24;97968.28;;;17.04;38.09
21433;BME280;18592;49.708;10.900;2024-03-23T11:49:26;97961.13;;;17.03;37.93
21433;BME280;18592;49.708;10.900;2024-03-23T11:51:37;97947.69;;;17.02;38.26
21433;BME280;18592;49.708;10.900;2024-03-23T11:53:38;97954.00;;;17.02;38.32
21433;BME280;18592;49.708;10.900;2024-03-23T11:55:55;97962.47;;;17.06;38.42
21433;BME280;18592;49.708;10.900;2024-03-23T11:57:56;97953.81;;;17.12;38.75
21433;BME280;18592;49.708;10.900;2024-03-23T11:59:57;97966.03;;;17.20;38.48
21433;BME280;18592;49.708;10.900;2024-03-23T12:01:58;97957.00;;;17.28;38.65
21433;BME280;18592;49.708;10.900;2024-03-23T12:03:59;97946.09;;;17.37;38.63
21433;BME280;18592;49.708;10.900;2024-03-23T12:06:01;97943.59;;;17.49;38.73
21433;BME280;18592;49.708;10.900;2024-03-23T12:08:21;97953.81;;;17.62;38.60
21433;BME280;18592;49.708;10.900;2024-03-23T12:10:29;97944.34;;;17.76;39.16
21433;BME280;18592;49.708;10.900;2024-03-23T12:12:30;97947.56;;;17.92;38.67
21433;BME280;18592;49.708;10.900;2024-03-23T12:14:30;97952.69;;;18.07;38.92